Downsville, New York
Current Conditions -  °F | °C
As of 12:15 AM on Sunday 26 Oct 2014 (Local Time) from KMSV Reporting Station
Few Clouds Few Clouds  
Wind Chill: 11°   Ceiling: Unl
Heat Index: 11°   Visibility: 10mi
Dew Point:   Wind: 12mph
Humidity: 62%   Direction: 300°WNW
Pressure: 29.59"   Gusts: NA
Location:  42.08°N, 75°W
Report Text: KMSV 260415Z AUTO 30010KT 10SM FEW048 11/04 A2959 RMK AO1
Loading
Personal Weather Stations






























Interactive Weather Map
Tropical Storm Tracking
New forecast layout! Learn more

10-Day Weather Forecast

Advertisements
Track Severe Weather on mobile